sensor_id;sensor_type;location;lat;lon;timestamp;temperature;humidity
11188;DHT22;5650;52.700;7.306;2023-07-13T00:02:16;17.50;99.90
11188;DHT22;5650;52.700;7.306;2023-07-13T00:04:43;17.40;99.90
11188;DHT22;5650;52.700;7.306;2023-07-13T00:07:10;17.40;99.90
11188;DHT22;5650;52.700;7.306;2023-07-13T00:09:40;17.30;99.90
11188;DHT22;5650;52.700;7.306;2023-07-13T00:12:24;17.20;99.90
11188;DHT22;5650;52.700;7.306;2023-07-13T00:14:56;17.20;99.90
11188;DHT22;5650;52.700;7.306;2023-07-13T00:17:29;17.20;99.90
11188;DHT22;5650;52.700;7.306;2023-07-13T00:20:00;17.20;99.90
11188;DHT22;5650;52.700;7.306;2023-07-13T00:22:30;17.20;99.90
11188;DHT22;5650;52.700;7.306;2023-07-13T00:24:57;17.20;99.90
11188;DHT22;5650;52.700;7.306;2023-07-13T00:27:35;17.10;99.90
11188;DHT22;5650;52.700;7.306;2023-07-13T00:30:02;17.10;99.90
11188;DHT22;5650;52.700;7.306;2023-07-13T00:32:37;17.10;99.90
11188;DHT22;5650;52.700;7.306;2023-07-13T00:35:05;17.10;99.90
11188;DHT22;5650;52.700;7.306;2023-07-13T00:37:38;17.00;99.90
11188;DHT22;5650;52.700;7.306;2023-07-13T00:40:10;17.00;99.90
11188;DHT22;5650;52.700;7.306;2023-07-13T00:42:40;17.00;99.90
11188;DHT22;5650;52.700;7.306;2023-07-13T00:48:08;16.90;99.90
11188;DHT22;5650;52.700;7.306;2023-07-13T00:50:39;16.90;99.90
11188;DHT22;5650;52.700;7.306;2023-07-13T00:53:10;16.90;99.90
11188;DHT22;5650;52.700;7.306;2023-07-13T00:55:37;16.80;99.90
11188;DHT22;5650;52.700;7.306;2023-07-13T00:58:07;16.80;99.90
11188;DHT22;5650;52.700;7.306;2023-07-13T01:00:41;16.80;99.90
11188;DHT22;5650;52.700;7.306;2023-07-13T01:03:12;16.80;99.90
11188;DHT22;5650;52.700;7.306;2023-07-13T01:05:42;16.80;99.90
11188;DHT22;5650;52.700;7.306;2023-07-13T01:08:09;16.80;99.90
11188;DHT22;5650;52.700;7.306;2023-07-13T01:10:39;16.70;99.90
11188;DHT22;5650;52.700;7.306;2023-07-13T01:13:10;16.70;99.90
11188;DHT22;5650;52.700;7.306;2023-07-13T01:15:39;16.70;99.90
11188;DHT22;5650;52.700;7.306;2023-07-13T01:18:12;16.70;99.90
11188;DHT22;5650;52.700;7.306;2023-07-13T01:20:40;16.70;99.90
11188;DHT22;5650;52.700;7.306;2023-07-13T01:23:10;16.70;99.90
11188;DHT22;5650;52.700;7.306;2023-07-13T01:25:39;16.70;99.90
11188;DHT22;5650;52.700;7.306;2023-07-13T01:28:07;16.80;99.90
11188;DHT22;5650;52.700;7.306;2023-07-13T01:30:35;16.80;99.90
11188;DHT22;5650;52.700;7.306;2023-07-13T01:33:04;16.80;99.90
11188;DHT22;5650;52.700;7.306;2023-07-13T01:35:31;16.80;99.90
11188;DHT22;5650;52.700;7.306;2023-07-13T01:37:58;16.80;99.90
11188;DHT22;5650;52.700;7.306;2023-07-13T01:40:28;16.90;99.90
11188;DHT22;5650;52.700;7.306;2023-07-13T01:42:55;16.90;99.90
11188;DHT22;5650;52.700;7.306;2023-07-13T01:45:24;16.90;99.90
11188;DHT22;5650;52.700;7.306;2023-07-13T01:47:57;17.00;99.90
11188;DHT22;5650;52.700;7.306;2023-07-13T01:50:25;17.00;99.90
11188;DHT22;5650;52.700;7.306;2023-07-13T01:52:55;17.10;99.90
11188;DHT22;5650;52.700;7.306;2023-07-13T01:55:23;17.10;99.90
11188;DHT22;5650;52.700;7.306;2023-07-13T01:57:50;17.10;99.90
11188;DHT22;5650;52.700;7.306;2023-07-13T02:00:18;17.00;99.90
11188;DHT22;5650;52.700;7.306;2023-07-13T02:02:45;17.10;99.90
11188;DHT22;5650;52.700;7.306;2023-07-13T02:05:12;17.00;99.90
11188;DHT22;5650;52.700;7.306;2023-07-13T02:07:43;17.00;99.90
11188;DHT22;5650;52.700;7.306;2023-07-13T02:10:13;17.10;99.90
11188;DHT22;5650;52.700;7.306;2023-07-13T02:12:41;17.00;99.90
11188;DHT22;5650;52.700;7.306;2023-07-13T02:15:12;17.10;99.90
11188;DHT22;5650;52.700;7.306;2023-07-13T02:17:40;17.10;99.90
11188;DHT22;5650;52.700;7.306;2023-07-13T02:20:07;17.10;99.90
11188;DHT22;5650;52.700;7.306;2023-07-13T02:22:37;17.10;99.90
11188;DHT22;5650;52.700;7.306;2023-07-13T02:25:05;17.10;99.90
11188;DHT22;5650;52.700;7.306;2023-07-13T02:27:43;17.10;99.90
11188;DHT22;5650;52.700;7.306;2023-07-13T02:30:14;17.10;99.90
11188;DHT22;5650;52.700;7.306;2023-07-13T02:32:45;17.20;99.90
11188;DHT22;5650;52.700;7.306;2023-07-13T02:35:13;17.10;99.90
11188;DHT22;5650;52.700;7.306;2023-07-13T02:37:42;17.20;99.90
11188;DHT22;5650;52.700;7.306;2023-07-13T02:40:12;17.10;99.90
11188;DHT22;5650;52.700;7.306;2023-07-13T02:42:43;17.10;99.90
11188;DHT22;5650;52.700;7.306;2023-07-13T02:45:24;17.10;99.90
11188;DHT22;5650;52.700;7.306;2023-07-13T02:47:53;17.10;99.90
11188;DHT22;5650;52.700;7.306;2023-07-13T02:50:21;17.10;99.90
11188;DHT22;5650;52.700;7.306;2023-07-13T02:52:54;17.10;99.90
11188;DHT22;5650;52.700;7.306;2023-07-13T02:55:28;17.10;99.90
11188;DHT22;5650;52.700;7.306;2023-07-13T02:57:56;17.10;99.90
11188;DHT22;5650;52.700;7.306;2023-07-13T03:00:25;17.10;99.90
11188;DHT22;5650;52.700;7.306;2023-07-13T03:02:52;17.10;99.90
11188;DHT22;5650;52.700;7.306;2023-07-13T03:05:22;17.10;99.90
11188;DHT22;5650;52.700;7.306;2023-07-13T03:07:50;17.10;99.90
11188;DHT22;5650;52.700;7.306;2023-07-13T03:10:22;17.10;99.90
11188;DHT22;5650;52.700;7.306;2023-07-13T03:12:52;17.10;99.90
11188;DHT22;5650;52.700;7.306;2023-07-13T03:15:19;17.10;99.90
11188;DHT22;5650;52.700;7.306;2023-07-13T03:17:48;17.20;99.90
11188;DHT22;5650;52.700;7.306;2023-07-13T03:20:15;17.20;99.90
11188;DHT22;5650;52.700;7.306;2023-07-13T03:22:43;17.10;99.90
11188;DHT22;5650;52.700;7.306;2023-07-13T03:25:10;17.20;99.90
11188;DHT22;5650;52.700;7.306;2023-07-13T03:27:46;17.20;99.90
11188;DHT22;5650;52.700;7.306;2023-07-13T03:30:14;17.20;99.90
11188;DHT22;5650;52.700;7.306;2023-07-13T03:32:41;17.20;99.90
11188;DHT22;5650;52.700;7.306;2023-07-13T03:35:10;17.20;99.90
11188;DHT22;5650;52.700;7.306;2023-07-13T03:37:37;17.10;99.90
11188;DHT22;5650;52.700;7.306;2023-07-13T03:40:14;17.10;99.90
11188;DHT22;5650;52.700;7.306;2023-07-13T03:42:41;17.10;99.90
11188;DHT22;5650;52.700;7.306;2023-07-13T03:45:11;17.10;99.90
11188;DHT22;5650;52.700;7.306;2023-07-13T03:47:38;17.10;99.90
11188;DHT22;5650;52.700;7.306;2023-07-13T03:50:15;17.10;99.90
11188;DHT22;5650;52.700;7.306;2023-07-13T03:52:46;17.10;99.90
11188;DHT22;5650;52.700;7.306;2023-07-13T03:55:16;17.10;99.90
11188;DHT22;5650;52.700;7.306;2023-07-13T03:57:43;17.10;99.90
11188;DHT22;5650;52.700;7.306;2023-07-13T04:00:19;17.10;99.90
11188;DHT22;5650;52.700;7.306;2023-07-13T04:02:47;17.10;99.90
11188;DHT22;5650;52.700;7.306;2023-07-13T04:07:44;17.20;99.90
11188;DHT22;5650;52.700;7.306;2023-07-13T04:10:14;17.20;99.90
11188;DHT22;5650;52.700;7.306;2023-07-13T04:12:41;17.10;99.90
11188;DHT22;5650;52.700;7.306;2023-07-13T04:15:09;17.10;99.90
11188;DHT22;5650;52.700;7.306;2023-07-13T04:17:36;17.10;99.90
11188;DHT22;5650;52.700;7.306;2023-07-13T04:20:07;17.20;99.90
11188;DHT22;5650;52.700;7.306;2023-07-13T04:22:34;17.30;99.90
11188;DHT22;5650;52.700;7.306;2023-07-13T04:25:02;17.40;99.90
11188;DHT22;5650;52.700;7.306;2023-07-13T04:27:30;17.40;99.90
11188;DHT22;5650;52.700;7.306;2023-07-13T04:29:58;17.40;99.90
11188;DHT22;5650;52.700;7.306;2023-07-13T04:32:25;17.40;99.90
11188;DHT22;5650;52.700;7.306;2023-07-13T04:34:55;17.40;99.90
11188;DHT22;5650;52.700;7.306;2023-07-13T04:37:25;17.30;99.90
11188;DHT22;5650;52.700;7.306;2023-07-13T04:39:52;17.40;99.90
11188;DHT22;5650;52.700;7.306;2023-07-13T04:42:21;17.40;99.90
11188;DHT22;5650;52.700;7.306;2023-07-13T04:44:49;17.40;99.90
11188;DHT22;5650;52.700;7.306;2023-07-13T04:47:23;17.50;99.90
11188;DHT22;5650;52.700;7.306;2023-07-13T04:49:53;17.60;99.90
11188;DHT22;5650;52.700;7.306;2023-07-13T04:52:26;17.60;99.90
11188;DHT22;5650;52.700;7.306;2023-07-13T04:55:02;17.70;99.90
11188;DHT22;5650;52.700;7.306;2023-07-13T04:57:31;17.70;99.90
11188;DHT22;5650;52.700;7.306;2023-07-13T04:59:59;17.70;99.90
11188;DHT22;5650;52.700;7.306;2023-07-13T05:02:27;17.70;99.90
11188;DHT22;5650;52.700;7.306;2023-07-13T05:04:54;17.70;99.90
11188;DHT22;5650;52.700;7.306;2023-07-13T05:07:25;17.70;99.90
11188;DHT22;5650;52.700;7.306;2023-07-13T05:09:55;17.70;99.90
11188;DHT22;5650;52.700;7.306;2023-07-13T05:12:25;17.80;99.90
11188;DHT22;5650;52.700;7.306;2023-07-13T05:15:00;17.90;99.90
11188;DHT22;5650;52.700;7.306;2023-07-13T05:17:27;18.10;99.90
11188;DHT22;5650;52.700;7.306;2023-07-13T05:19:55;18.30;99.90
11188;DHT22;5650;52.700;7.306;2023-07-13T05:22:22;18.50;99.90
11188;DHT22;5650;52.700;7.306;2023-07-13T05:24:49;18.60;99.90
11188;DHT22;5650;52.700;7.306;2023-07-13T05:27:16;18.70;99.90
11188;DHT22;5650;52.700;7.306;2023-07-13T05:29:43;18.90;99.90
11188;DHT22;5650;52.700;7.306;2023-07-13T05:32:17;19.30;99.90
11188;DHT22;5650;52.700;7.306;2023-07-13T05:34:44;20.00;99.90
11188;DHT22;5650;52.700;7.306;2023-07-13T05:37:11;20.80;99.90
11188;DHT22;5650;52.700;7.306;2023-07-13T05:39:41;21.50;99.90
11188;DHT22;5650;52.700;7.306;2023-07-13T05:42:09;22.20;99.90
11188;DHT22;5650;52.700;7.306;2023-07-13T05:44:43;22.90;99.90
11188;DHT22;5650;52.700;7.306;2023-07-13T05:47:10;23.40;99.90
11188;DHT22;5650;52.700;7.306;2023-07-13T05:49:41;23.80;99.90
11188;DHT22;5650;52.700;7.306;2023-07-13T05:52:08;24.10;99.90
11188;DHT22;5650;52.700;7.306;2023-07-13T05:54:35;24.40;99.90
11188;DHT22;5650;52.700;7.306;2023-07-13T05:57:03;24.70;99.90
11188;DHT22;5650;52.700;7.306;2023-07-13T05:59:30;25.00;99.90
11188;DHT22;5650;52.700;7.306;2023-07-13T06:01:57;25.30;99.90
11188;DHT22;5650;52.700;7.306;2023-07-13T06:04:25;25.60;99.90
11188;DHT22;5650;52.700;7.306;2023-07-13T06:06:53;25.80;99.90
11188;DHT22;5650;52.700;7.306;2023-07-13T06:09:20;26.20;99.80
11188;DHT22;5650;52.700;7.306;2023-07-13T06:11:47;26.30;98.50
11188;DHT22;5650;52.700;7.306;2023-07-13T06:14:15;26.40;98.80
11188;DHT22;5650;52.700;7.306;2023-07-13T06:16:48;26.70;98.40
11188;DHT22;5650;52.700;7.306;2023-07-13T06:19:15;26.90;97.80
11188;DHT22;5650;52.700;7.306;2023-07-13T06:21:48;26.90;97.10
11188;DHT22;5650;52.700;7.306;2023-07-13T06:24:17;26.90;97.40
11188;DHT22;5650;52.700;7.306;2023-07-13T06:26:44;27.00;97.20
11188;DHT22;5650;52.700;7.306;2023-07-13T06:29:11;27.20;97.20
11188;DHT22;5650;52.700;7.306;2023-07-13T06:31:38;27.10;96.30
11188;DHT22;5650;52.700;7.306;2023-07-13T06:34:06;27.10;96.70
11188;DHT22;5650;52.700;7.306;2023-07-13T06:36:42;27.10;96.70
11188;DHT22;5650;52.700;7.306;2023-07-13T06:39:12;27.20;96.50
11188;DHT22;5650;52.700;7.306;2023-07-13T06:41:40;27.00;96.40
11188;DHT22;5650;52.700;7.306;2023-07-13T06:44:08;26.90;96.90
11188;DHT22;5650;52.700;7.306;2023-07-13T06:46:48;26.90;96.90
11188;DHT22;5650;52.700;7.306;2023-07-13T06:49:16;27.00;96.80
11188;DHT22;5650;52.700;7.306;2023-07-13T06:51:45;26.80;96.70
11188;DHT22;5650;52.700;7.306;2023-07-13T06:54:13;26.50;97.00
11188;DHT22;5650;52.700;7.306;2023-07-13T06:56:41;26.50;97.50
11188;DHT22;5650;52.700;7.306;2023-07-13T06:59:08;26.60;97.20
11188;DHT22;5650;52.700;7.306;2023-07-13T07:01:36;26.50;97.40
11188;DHT22;5650;52.700;7.306;2023-07-13T07:04:03;26.40;97.10
11188;DHT22;5650;52.700;7.306;2023-07-13T07:06:30;26.10;97.60
11188;DHT22;5650;52.700;7.306;2023-07-13T07:09:03;25.90;97.90
11188;DHT22;5650;52.700;7.306;2023-07-13T07:11:30;25.90;98.30
11188;DHT22;5650;52.700;7.306;2023-07-13T07:13:59;26.10;98.10
11188;DHT22;5650;52.700;7.306;2023-07-13T07:16:26;26.10;97.50
11188;DHT22;5650;52.700;7.306;2023-07-13T07:18:56;26.30;98.00
11188;DHT22;5650;52.700;7.306;2023-07-13T07:21:23;26.50;97.50
11188;DHT22;5650;52.700;7.306;2023-07-13T07:23:52;26.40;97.40
11188;DHT22;5650;52.700;7.306;2023-07-13T07:26:19;26.40;97.60
11188;DHT22;5650;52.700;7.306;2023-07-13T07:28:46;26.20;97.30
11188;DHT22;5650;52.700;7.306;2023-07-13T07:31:15;26.00;97.60
11188;DHT22;5650;52.700;7.306;2023-07-13T07:33:51;25.60;97.90
11188;DHT22;5650;52.700;7.306;2023-07-13T07:36:21;25.50;98.90
11188;DHT22;5650;52.700;7.306;2023-07-13T07:38:48;25.80;98.40
11188;DHT22;5650;52.700;7.306;2023-07-13T07:41:15;26.10;97.90
11188;DHT22;5650;52.700;7.306;2023-07-13T07:43:42;26.20;97.60
11188;DHT22;5650;52.700;7.306;2023-07-13T07:46:09;26.10;97.70
11188;DHT22;5650;52.700;7.306;2023-07-13T07:48:38;26.00;97.70
11188;DHT22;5650;52.700;7.306;2023-07-13T07:51:05;25.50;98.20
11188;DHT22;5650;52.700;7.306;2023-07-13T07:53:33;25.10;99.30
11188;DHT22;5650;52.700;7.306;2023-07-13T07:56:00;25.20;99.10
11188;DHT22;5650;52.700;7.306;2023-07-13T07:58:27;25.70;98.90
11188;DHT22;5650;52.700;7.306;2023-07-13T08:00:59;26.10;98.10
11188;DHT22;5650;52.700;7.306;2023-07-13T08:03:28;26.40;97.30
11188;DHT22;5650;52.700;7.306;2023-07-13T08:05:57;26.10;97.20
11188;DHT22;5650;52.700;7.306;2023-07-13T08:08:24;25.60;97.80
11188;DHT22;5650;52.700;7.306;2023-07-13T08:10:52;25.50;98.10
11188;DHT22;5650;52.700;7.306;2023-07-13T08:13:20;25.20;98.50
11188;DHT22;5650;52.700;7.306;2023-07-13T08:15:49;24.90;98.90
11188;DHT22;5650;52.700;7.306;2023-07-13T08:18:16;24.80;99.00
11188;DHT22;5650;52.700;7.306;2023-07-13T08:20:43;24.80;99.30
11188;DHT22;5650;52.700;7.306;2023-07-13T08:23:12;24.70;99.40
11188;DHT22;5650;52.700;7.306;2023-07-13T08:25:39;24.60;99.40
11188;DHT22;5650;52.700;7.306;2023-07-13T08:28:07;24.50;99.60
11188;DHT22;5650;52.700;7.306;2023-07-13T08:30:34;24.60;99.60
11188;DHT22;5650;52.700;7.306;2023-07-13T08:33:02;24.70;99.60
11188;DHT22;5650;52.700;7.306;2023-07-13T08:35:29;24.80;99.90
11188;DHT22;5650;52.700;7.306;2023-07-13T08:37:56;24.80;99.90
11188;DHT22;5650;52.700;7.306;2023-07-13T08:40:25;25.00;99.70
11188;DHT22;5650;52.700;7.306;2023-07-13T08:42:55;24.90;99.00
11188;DHT22;5650;52.700;7.306;2023-07-13T08:45:32;24.80;99.00
11188;DHT22;5650;52.700;7.306;2023-07-13T08:48:05;24.90;99.10
11188;DHT22;5650;52.700;7.306;2023-07-13T08:50:41;24.90;99.00
11188;DHT22;5650;52.700;7.306;2023-07-13T08:53:12;25.00;99.20
11188;DHT22;5650;52.700;7.306;2023-07-13T08:55:42;25.10;98.80
11188;DHT22;5650;52.700;7.306;2023-07-13T08:58:12;25.20;98.80
11188;DHT22;5650;52.700;7.306;2023-07-13T09:00:44;25.30;98.80
11188;DHT22;5650;52.700;7.306;2023-07-13T09:03:20;25.50;98.40
11188;DHT22;5650;52.700;7.306;2023-07-13T09:05:52;25.80;98.00
11188;DHT22;5650;52.700;7.306;2023-07-13T09:08:33;25.90;98.10
11188;DHT22;5650;52.700;7.306;2023-07-13T09:11:12;26.20;97.60
11188;DHT22;5650;52.700;7.306;2023-07-13T09:13:43;26.20;97.90
11188;DHT22;5650;52.700;7.306;2023-07-13T09:16:12;26.20;97.50
11188;DHT22;5650;52.700;7.306;2023-07-13T09:18:43;25.90;96.70
11188;DHT22;5650;52.700;7.306;2023-07-13T09:21:15;25.90;96.70
11188;DHT22;5650;52.700;7.306;2023-07-13T09:23:43;25.80;97.20
11188;DHT22;5650;52.700;7.306;2023-07-13T09:26:14;25.70;97.50
11188;DHT22;5650;52.700;7.306;2023-07-13T09:28:45;25.60;97.40
11188;DHT22;5650;52.700;7.306;2023-07-13T09:31:15;25.40;97.60
11188;DHT22;5650;52.700;7.306;2023-07-13T09:33:43;25.10;98.00
11188;DHT22;5650;52.700;7.306;2023-07-13T09:36:22;25.00;98.60
11188;DHT22;5650;52.700;7.306;2023-07-13T09:38:57;24.80;98.90
11188;DHT22;5650;52.700;7.306;2023-07-13T09:41:34;24.80;98.80
11188;DHT22;5650;52.700;7.306;2023-07-13T09:44:08;24.80;98.70
11188;DHT22;5650;52.700;7.306;2023-07-13T09:46:37;24.80;99.00
11188;DHT22;5650;52.700;7.306;2023-07-13T09:49:04;24.80;98.90
11188;DHT22;5650;52.700;7.306;2023-07-13T09:51:31;24.70;98.60
11188;DHT22;5650;52.700;7.306;2023-07-13T09:53:59;24.70;98.70
11188;DHT22;5650;52.700;7.306;2023-07-13T09:56:30;24.70;98.80
11188;DHT22;5650;52.700;7.306;2023-07-13T09:58:58;24.60;99.00
11188;DHT22;5650;52.700;7.306;2023-07-13T10:01:33;24.40;98.30
11188;DHT22;5650;52.700;7.306;2023-07-13T10:04:01;24.10;98.70
11188;DHT22;5650;52.700;7.306;2023-07-13T10:06:28;23.80;99.90
11188;DHT22;5650;52.700;7.306;2023-07-13T10:08:56;23.10;99.90
11188;DHT22;5650;52.700;7.306;2023-07-13T10:11:27;22.20;99.90
11188;DHT22;5650;52.700;7.306;2023-07-13T10:13:58;21.00;99.90
11188;DHT22;5650;52.700;7.306;2023-07-13T10:16:31;19.50;99.90
11188;DHT22;5650;52.700;7.306;2023-07-13T10:19:00;18.70;99.90
11188;DHT22;5650;52.700;7.306;2023-07-13T10:21:34;17.90;99.90
11188;DHT22;5650;52.700;7.306;2023-07-13T10:24:16;17.50;99.90
11188;DHT22;5650;52.700;7.306;2023-07-13T10:26:48;17.20;99.90
11188;DHT22;5650;52.700;7.306;2023-07-13T10:29:18;17.10;99.90
11188;DHT22;5650;52.700;7.306;2023-07-13T10:31:46;17.10;99.90
11188;DHT22;5650;52.700;7.306;2023-07-13T10:34:14;17.20;99.90
11188;DHT22;5650;52.700;7.306;2023-07-13T10:36:43;17.40;99.90
11188;DHT22;5650;52.700;7.306;2023-07-13T10:39:16;17.60;99.90
11188;DHT22;5650;52.700;7.306;2023-07-13T10:41:46;17.90;99.90
11188;DHT22;5650;52.700;7.306;2023-07-13T10:44:20;18.10;99.90
11188;DHT22;5650;52.700;7.306;2023-07-13T10:46:52;18.30;99.90
11188;DHT22;5650;52.700;7.306;2023-07-13T10:49:20;18.50;99.90
11188;DHT22;5650;52.700;7.306;2023-07-13T10:51:49;18.70;99.90
11188;DHT22;5650;52.700;7.306;2023-07-13T10:54:19;19.00;99.90
11188;DHT22;5650;52.700;7.306;2023-07-13T10:56:53;19.30;99.90
11188;DHT22;5650;52.700;7.306;2023-07-13T10:59:34;19.70;99.90
11188;DHT22;5650;52.700;7.306;2023-07-13T11:02:10;20.00;99.90
11188;DHT22;5650;52.700;7.306;2023-07-13T11:04:44;20.20;99.90
11188;DHT22;5650;52.700;7.306;2023-07-13T11:07:19;20.40;99.90
11188;DHT22;5650;52.700;7.306;2023-07-13T11:09:50;20.60;99.90
11188;DHT22;5650;52.700;7.306;2023-07-13T11:12:51;20.80;99.90
11188;DHT22;5650;52.700;7.306;2023-07-13T11:15:43;21.00;99.90
11188;DHT22;5650;52.700;7.306;2023-07-13T11:18:20;21.20;99.90
11188;DHT22;5650;52.700;7.306;2023-07-13T11:20:49;21.40;99.90
11188;DHT22;5650;52.700;7.306;2023-07-13T11:23:34;21.40;99.90
11188;DHT22;5650;52.700;7.306;2023-07-13T11:26:39;21.50;99.90
11188;DHT22;5650;52.700;7.306;2023-07-13T11:29:09;21.40;99.90
11188;DHT22;5650;52.700;7.306;2023-07-13T11:31:38;21.50;99.90
11188;DHT22;5650;52.700;7.306;2023-07-13T11:34:12;21.50;99.90
11188;DHT22;5650;52.700;7.306;2023-07-13T11:36:44;21.40;99.90
11188;DHT22;5650;52.700;7.306;2023-07-13T11:39:17;21.40;99.90
11188;DHT22;5650;52.700;7.306;2023-07-13T11:41:48;21.40;99.90
11188;DHT22;5650;52.700;7.306;2023-07-13T11:44:19;21.40;99.90
11188;DHT22;5650;52.700;7.306;2023-07-13T11:46:49;21.40;99.90
11188;DHT22;5650;52.700;7.306;2023-07-13T11:49:19;21.40;99.90
11188;DHT22;5650;52.700;7.306;2023-07-13T11:51:47;21.40;99.90
11188;DHT22;5650;52.700;7.306;2023-07-13T11:54:24;21.20;99.90
11188;DHT22;5650;52.700;7.306;2023-07-13T11:56:52;21.00;99.90
11188;DHT22;5650;52.700;7.306;2023-07-13T11:59:20;20.80;99.90
11188;DHT22;5650;52.700;7.306;2023-07-13T12:01:52;20.70;99.90
11188;DHT22;5650;52.700;7.306;2023-07-13T12:04:23;20.60;99.90
11188;DHT22;5650;52.700;7.306;2023-07-13T12:06:56;20.60;99.90
11188;DHT22;5650;52.700;7.306;2023-07-13T12:09:26;20.70;99.90
11188;DHT22;5650;52.700;7.306;2023-07-13T12:11:56;20.80;99.90
11188;DHT22;5650;52.700;7.306;2023-07-13T12:14:25;20.90;99.90
11188;DHT22;5650;52.700;7.306;2023-07-13T12:16:55;21.10;99.90
11188;DHT22;5650;52.700;7.306;2023-07-13T12:19:26;21.20;99.90
11188;DHT22;5650;52.700;7.306;2023-07-13T12:21:56;21.50;99.90
11188;DHT22;5650;52.700;7.306;2023-07-13T12:24:25;21.60;99.90
11188;DHT22;5650;52.700;7.306;2023-07-13T12:26:54;21.70;99.90
11188;DHT22;5650;52.700;7.306;2023-07-13T12:29:21;21.80;99.90
11188;DHT22;5650;52.700;7.306;2023-07-13T12:31:49;21.90;99.90
11188;DHT22;5650;52.700;7.306;2023-07-13T12:34:21;22.00;99.90
11188;DHT22;5650;52.700;7.306;2023-07-13T12:36:51;22.10;99.90
11188;DHT22;5650;52.700;7.306;2023-07-13T12:39:21;22.30;99.90
11188;DHT22;5650;52.700;7.306;2023-07-13T12:41:51;22.50;99.90
11188;DHT22;5650;52.700;7.306;2023-07-13T12:44:24;22.60;99.90
11188;DHT22;5650;52.700;7.306;2023-07-13T12:46:55;22.70;99.90
11188;DHT22;5650;52.700;7.306;2023-07-13T12:49:30;22.70;99.90
11188;DHT22;5650;52.700;7.306;2023-07-13T12:52:02;22.60;99.90
11188;DHT22;5650;52.700;7.306;2023-07-13T12:54:31;22.60;99.90
11188;DHT22;5650;52.700;7.306;2023-07-13T12:56:59;22.60;99.90
11188;DHT22;5650;52.700;7.306;2023-07-13T12:59:31;22.50;99.90
11188;DHT22;5650;52.700;7.306;2023-07-13T13:02:04;22.30;99.90
11188;DHT22;5650;52.700;7.306;2023-07-13T13:04:45;22.20;99.90
11188;DHT22;5650;52.700;7.306;2023-07-13T13:07:13;22.10;99.90
11188;DHT22;5650;52.700;7.306;2023-07-13T13:09:40;22.00;99.90
11188;DHT22;5650;52.700;7.306;2023-07-13T13:12:08;22.00;99.90
11188;DHT22;5650;52.700;7.306;2023-07-13T13:14:35;22.10;99.90
11188;DHT22;5650;52.700;7.306;2023-07-13T13:17:18;22.20;99.90
11188;DHT22;5650;52.700;7.306;2023-07-13T13:19:47;22.30;99.90
11188;DHT22;5650;52.700;7.306;2023-07-13T13:22:15;22.40;99.90
11188;DHT22;5650;52.700;7.306;2023-07-13T13:24:43;22.50;99.90
11188;DHT22;5650;52.700;7.306;2023-07-13T13:27:15;22.60;99.90
11188;DHT22;5650;52.700;7.306;2023-07-13T13:29:44;22.70;99.90
11188;DHT22;5650;52.700;7.306;2023-07-13T13:32:12;22.90;99.90
11188;DHT22;5650;52.700;7.306;2023-07-13T13:34:40;23.00;99.90
11188;DHT22;5650;52.700;7.306;2023-07-13T13:37:17;23.10;99.90
11188;DHT22;5650;52.700;7.306;2023-07-13T13:39:45;23.30;99.90
11188;DHT22;5650;52.700;7.306;2023-07-13T13:42:13;23.40;99.90
11188;DHT22;5650;52.700;7.306;2023-07-13T13:44:40;23.50;99.90
11188;DHT22;5650;52.700;7.306;2023-07-13T13:47:27;23.60;99.90
11188;DHT22;5650;52.700;7.306;2023-07-13T13:49:55;23.60;99.90
11188;DHT22;5650;52.700;7.306;2023-07-13T13:52:24;23.40;99.90
11188;DHT22;5650;52.700;7.306;2023-07-13T13:54:51;22.90;99.90
11188;DHT22;5650;52.700;7.306;2023-07-13T13:57:22;22.40;99.90
11188;DHT22;5650;52.700;7.306;2023-07-13T13:59:50;22.00;99.90
11188;DHT22;5650;52.700;7.306;2023-07-13T14:02:24;21.70;99.90
11188;DHT22;5650;52.700;7.306;2023-07-13T14:04:55;21.50;99.90
11188;DHT22;5650;52.700;7.306;2023-07-13T14:07:25;21.20;99.90
11188;DHT22;5650;52.700;7.306;2023-07-13T14:09:53;21.00;99.90
11188;DHT22;5650;52.700;7.306;2023-07-13T14:12:21;20.80;99.90
11188;DHT22;5650;52.700;7.306;2023-07-13T14:14:50;20.60;99.90
11188;DHT22;5650;52.700;7.306;2023-07-13T14:17:20;20.60;99.90
11188;DHT22;5650;52.700;7.306;2023-07-13T14:19:48;20.40;99.90
11188;DHT22;5650;52.700;7.306;2023-07-13T14:22:24;20.50;99.90
11188;DHT22;5650;52.700;7.306;2023-07-13T14:24:52;20.70;99.90
11188;DHT22;5650;52.700;7.306;2023-07-13T14:27:20;21.00;99.90
11188;DHT22;5650;52.700;7.306;2023-07-13T14:29:47;21.20;99.90
11188;DHT22;5650;52.700;7.306;2023-07-13T14:32:15;21.30;99.90
11188;DHT22;5650;52.700;7.306;2023-07-13T14:34:42;21.50;99.90
11188;DHT22;5650;52.700;7.306;2023-07-13T14:37:13;21.60;99.90
11188;DHT22;5650;52.700;7.306;2023-07-13T14:39:44;21.80;99.90
11188;DHT22;5650;52.700;7.306;2023-07-13T14:42:11;21.90;99.90
11188;DHT22;5650;52.700;7.306;2023-07-13T14:44:39;21.90;99.90
11188;DHT22;5650;52.700;7.306;2023-07-13T14:47:07;22.00;99.90
11188;DHT22;5650;52.700;7.306;2023-07-13T14:49:36;22.10;99.90
11188;DHT22;5650;52.700;7.306;2023-07-13T14:52:10;22.20;99.90
11188;DHT22;5650;52.700;7.306;2023-07-13T14:54:38;22.30;99.90
11188;DHT22;5650;52.700;7.306;2023-07-13T14:57:11;22.40;99.90
11188;DHT22;5650;52.700;7.306;2023-07-13T14:59:39;22.40;99.90
11188;DHT22;5650;52.700;7.306;2023-07-13T15:02:18;22.40;99.90
11188;DHT22;5650;52.700;7.306;2023-07-13T15:04:48;22.30;99.90
11188;DHT22;5650;52.700;7.306;2023-07-13T15:07:15;22.20;99.90
11188;DHT22;5650;52.700;7.306;2023-07-13T15:09:44;22.20;99.90
11188;DHT22;5650;52.700;7.306;2023-07-13T15:12:14;22.20;99.90
11188;DHT22;5650;52.700;7.306;2023-07-13T15:14:41;22.20;99.90
11188;DHT22;5650;52.700;7.306;2023-07-13T15:17:24;22.20;99.90
11188;DHT22;5650;52.700;7.306;2023-07-13T15:19:53;22.20;99.90
11188;DHT22;5650;52.700;7.306;2023-07-13T15:22:21;22.30;99.90
11188;DHT22;5650;52.700;7.306;2023-07-13T15:24:49;22.50;99.90
11188;DHT22;5650;52.700;7.306;2023-07-13T15:27:17;22.70;99.90
11188;DHT22;5650;52.700;7.306;2023-07-13T15:29:45;22.90;99.90
11188;DHT22;5650;52.700;7.306;2023-07-13T15:32:13;23.00;99.90
11188;DHT22;5650;52.700;7.306;2023-07-13T15:34:41;23.10;99.90
11188;DHT22;5650;52.700;7.306;2023-07-13T15:37:15;23.20;99.90
11188;DHT22;5650;52.700;7.306;2023-07-13T15:39:43;23.20;99.90
11188;DHT22;5650;52.700;7.306;2023-07-13T15:42:14;23.30;99.90
11188;DHT22;5650;52.700;7.306;2023-07-13T15:44:43;23.20;99.90
11188;DHT22;5650;52.700;7.306;2023-07-13T15:47:12;23.30;99.90
11188;DHT22;5650;52.700;7.306;2023-07-13T15:49:40;23.30;99.90
11188;DHT22;5650;52.700;7.306;2023-07-13T15:52:15;23.20;99.90
11188;DHT22;5650;52.700;7.306;2023-07-13T15:54:43;23.20;99.90
11188;DHT22;5650;52.700;7.306;2023-07-13T15:57:11;23.10;99.10
11188;DHT22;5650;52.700;7.306;2023-07-13T15:59:38;23.10;99.90
11188;DHT22;5650;52.700;7.306;2023-07-13T16:02:14;23.00;99.90
11188;DHT22;5650;52.700;7.306;2023-07-13T16:04:43;23.00;99.90
11188;DHT22;5650;52.700;7.306;2023-07-13T16:07:11;22.90;99.90
11188;DHT22;5650;52.700;7.306;2023-07-13T16:09:40;23.00;99.90